Archival Weather

Republic

Farmingdale, New York (KFRG)

Report from: Wednesday, January 24, 2024 5:53 PM EST
Current time: Monday, June 17, 2024 2:42 AM EDT

Current weather – Weather history – Daily summaries
Weather forecast

Present weatherFog
Temperature6.1°C (43.0°F)
Wind chill4.1°C (39.5°F)
Dew point5.6°C (42.1°F)
Winds 5 kts (2.6 m/s, 5.8 mph) Southeast (130°)
Visibility2640 ft. (804.7 m)
Clouds Ceiling: Vertical visibility 200 ft. (61 m)
Altimeter30.37 in.Hg (1028 mB)
Relative humidity97 %
Density altitude-1,454 ft. (-443 m)
Sea-level pressure102.8 kPa (1028 mB, 30.37 in.Hg)
Remarks Automated weather observing station with precipitation discriminator
Flight conditions Low Instrument Meteorological Conditions
Raw dataKFRG 242253Z 13005KT 1/2SM FG VV002 06/06 A3037 RMK AO2 SLP284 T00610056
An error has occurred. This application may no longer respond until reloaded. Reload 🗙